This is the latest recevied weather packets stored in our database for station/object DO7ZT-10. If no packets are shown the sender has not sent any weather packets the latest 10 day(s).
| Time | Temp. | Humidity | Pressure | Rain* | Wind** | Luminosity | Snow |
|---|---|---|---|---|---|---|---|
| 1787597180 | 13.89° C | 76% | 1021.9 hPa | - | - | - | - |
| 1787596280 | 14.44° C | 73% | 1022 hPa | - | - | - | - |
| 1787595380 | 15° C | 71% | 1021.9 hPa | - | - | - | - |
| 1787594480 | 15.56° C | 69% | 1021.8 hPa | - | - | - | - |
| 1787593580 | 16.11° C | 67% | 1021.9 hPa | - | - | - | - |
| 1787592680 | 17.22° C | 61% | 1022 hPa | - | - | - | - |
| 1787591780 | 17.78° C | 57% | 1022 hPa | - | - | - | - |
| 1787590880 | 18.33° C | 52% | 1022.2 hPa | - | - | - | - |
| 1787589980 | 19.44° C | 49% | 1022.2 hPa | - | - | - | - |
| 1787589080 | 19.44° C | 48% | 1022.2 hPa | - | - | - | - |
| 1787588179 | 20° C | 47% | 1022.4 hPa | - | - | - | - |
| 1787587279 | 20° C | 47% | 1022.5 hPa | - | - | - | - |
| 1787586379 | 20° C | 47% | 1022.6 hPa | - | - | - | - |
| 1787585479 | 20° C | 46% | 1022.6 hPa | - | - | - | - |
| 1787584579 | 20.56° C | 44% | 1022.7 hPa | - | - | - | - |
| 1787583679 | 20.56° C | 45% | 1022.9 hPa | - | - | - | - |
| 1787582779 | 20° C | 45% | 1023.1 hPa | - | - | - | - |
| 1787581879 | 19.44° C | 45% | 1023.3 hPa | - | - | - | - |
| 1787580979 | 19.44° C | 49% | 1023.3 hPa | - | - | - | - |
| 1787580079 | 20° C | 45% | 1023.3 hPa | - | - | - | - |
| 1787579179 | 19.44° C | 49% | 1023.5 hPa | - | - | - | - |
| 1787578279 | 18.33° C | 53% | 1023.7 hPa | - | - | - | - |
| 1787577378 | 18.89° C | 52% | 1023.7 hPa | - | - | - | - |
| 1787576478 | 19.44° C | 50% | 1023.8 hPa | - | - | - | - |
| 1787575578 | 18.33° C | 52% | 1024 hPa | - | - | - | - |
* Rain since midnight (hover to see other rain measurements)
** Current wind speed in m/s (hover to see current wind gust speed)